Time;durP1;ratioP1;P1;durP2;ratioP2;P2;SDS_P1;SDS_P2;PMS_P1;PMS_P2;Temp;Humidity;BMP_temperature;BMP_pressure;BME280_temperature;BME280_humidity;BME280_pressure;Samples;Min_cycle;Max_cycle;Signal;HPM_P1;HPM_P2
2021/09/14 00:01:47;;;;;;;7.63;5.30;;;;;;;;;;5074343;28;20242;-72
2021/09/14 00:04:13;;;;;;;6.43;4.80;;;;;;;;;;5077133;28;20271;-72
2021/09/14 00:06:40;;;;;;;7.10;4.60;;;;;;;;;;5071870;28;20264;-72
2021/09/14 00:09:08;;;;;;;5.27;4.50;;;;;;;;;;5075047;28;20738;-72
2021/09/14 00:11:35;;;;;;;11.23;4.70;;;;;;;;;;5073974;28;20622;-72
2021/09/14 00:14:03;;;;;;;6.47;4.03;;;;;;;;;;5076073;28;20206;-72
2021/09/14 00:16:30;;;;;;;6.43;3.70;;;;;;;;;;5073753;28;20749;-72
2021/09/14 00:18:56;;;;;;;4.50;4.10;;;;;;;;;;5074512;28;20286;-72
2021/09/14 00:21:23;;;;;;;6.03;4.80;;;;;;;;;;5075332;28;20217;-72
2021/09/14 00:23:49;;;;;;;6.87;4.43;;;;;;;;;;5074330;28;20210;-72
2021/09/14 00:26:15;;;;;;;8.27;4.37;;;;;;;;;;5075084;28;20233;-72
2021/09/14 00:28:42;;;;;;;7.73;4.63;;;;;;;;;;5073996;28;20610;-72
2021/09/14 00:31:10;;;;;;;8.67;4.47;;;;;;;;;;5075251;28;20213;-72
2021/09/14 00:33:36;;;;;;;6.53;4.47;;;;;;;;;;5073449;28;20225;-72
2021/09/14 00:36:02;;;;;;;9.37;5.23;;;;;;;;;;5073720;28;20258;-72
2021/09/14 00:38:29;;;;;;;7.23;5.03;;;;;;;;;;5074852;28;20317;-72
2021/09/14 00:40:55;;;;;;;5.47;3.50;;;;;;;;;;5075914;28;20294;-72
2021/09/14 00:43:22;;;;;;;5.70;4.53;;;;;;;;;;5074235;28;20271;-72
2021/09/14 00:45:50;;;;;;;9.90;4.60;;;;;;;;;;5075464;28;20802;-72
2021/09/14 00:48:18;;;;;;;6.13;4.37;;;;;;;;;;5075199;28;20221;-72
2021/09/14 00:50:45;;;;;;;6.90;4.70;;;;;;;;;;5073504;28;20613;-72
2021/09/14 00:53:11;;;;;;;5.33;4.07;;;;;;;;;;5072837;28;20217;-72
2021/09/14 00:55:38;;;;;;;7.97;4.60;;;;;;;;;;5076089;28;20213;-72
2021/09/14 00:58:04;;;;;;;8.07;3.90;;;;;;;;;;5071898;28;20252;-72
2021/09/14 01:00:31;;;;;;;8.33;4.70;;;;;;;;;;5074528;28;20758;-72
2021/09/14 01:02:57;;;;;;;7.73;4.60;;;;;;;;;;5074093;28;20589;-72
2021/09/14 01:05:25;;;;;;;5.43;4.40;;;;;;;;;;5074797;28;20262;-72
2021/09/14 01:07:53;;;;;;;6.20;4.67;;;;;;;;;;5073306;28;20824;-72
2021/09/14 01:10:20;;;;;;;6.33;4.20;;;;;;;;;;5074189;28;20231;-72
2021/09/14 01:12:47;;;;;;;5.63;4.30;;;;;;;;;;5075310;28;20213;-72
2021/09/14 01:15:14;;;;;;;6.70;4.70;;;;;;;;;;5075411;28;20218;-72
2021/09/14 01:17:40;;;;;;;4.90;4.40;;;;;;;;;;5074427;28;20271;-72
2021/09/14 01:20:08;;;;;;;7.93;5.20;;;;;;;;;;5076230;28;20672;-72
2021/09/14 01:22:36;;;;;;;7.43;4.93;;;;;;;;;;5074499;28;20210;-72
2021/09/14 01:25:15;;;;;;;5.67;4.93;;;;;;;;;;5075169;28;20225;-72
2021/09/14 01:27:41;;;;;;;7.37;4.73;;;;;;;;;;5076456;28;20248;-72
2021/09/14 01:30:12;;;;;;;9.03;5.00;;;;;;;;;;5078614;28;20212;-72
2021/09/14 01:32:39;;;;;;;7.80;5.07;;;;;;;;;;5078548;28;20311;-72
2021/09/14 01:35:07;;;;;;;7.30;4.93;;;;;;;;;;5077484;28;20272;-72
2021/09/14 01:37:35;;;;;;;9.63;4.77;;;;;;;;;;5078874;28;20283;-72
2021/09/14 01:40:02;;;;;;;8.50;5.33;;;;;;;;;;5079432;28;20221;-72
2021/09/14 01:42:28;;;;;;;6.43;4.53;;;;;;;;;;5078525;28;20220;-72
2021/09/14 01:44:55;;;;;;;7.83;5.77;;;;;;;;;;5075335;28;20581;-72
2021/09/14 01:47:21;;;;;;;7.57;5.27;;;;;;;;;;5078195;28;20554;-72
2021/09/14 01:49:48;;;;;;;7.57;5.43;;;;;;;;;;5078114;28;20291;-72
2021/09/14 01:52:14;;;;;;;6.13;5.53;;;;;;;;;;5077743;28;20217;-72
2021/09/14 01:54:42;;;;;;;8.47;5.50;;;;;;;;;;5077677;28;20214;-72
2021/09/14 01:57:09;;;;;;;10.10;5.67;;;;;;;;;;5078103;28;20206;-72
2021/09/14 01:59:36;;;;;;;9.07;5.07;;;;;;;;;;5076010;28;20285;-72
2021/09/14 02:02:05;;;;;;;9.53;5.23;;;;;;;;;;5076948;28;20295;-72
2021/09/14 02:04:39;;;;;;;8.07;5.40;;;;;;;;;;5078191;28;20609;-72
2021/09/14 02:40:13;;;;;;;8.57;7.03;;;;;;;;;;5077174;28;20213;-72
2021/09/14 02:56:44;;;;;;;12.90;7.93;;;;;;;;;;5076400;28;20648;-72
2021/09/14 02:59:10;;;;;;;12.33;8.23;;;;;;;;;;5074333;28;20708;-72
2021/09/14 03:01:37;;;;;;;15.43;8.80;;;;;;;;;;5075968;28;20244;-72
2021/09/14 03:04:05;;;;;;;11.87;9.63;;;;;;;;;;5077555;28;20700;-72
2021/09/14 03:06:32;;;;;;;11.80;8.93;;;;;;;;;;5076170;28;20255;-72
2021/09/14 03:08:58;;;;;;;14.43;9.53;;;;;;;;;;5075841;28;20209;-72
2021/09/14 03:11:24;;;;;;;16.27;9.53;;;;;;;;;;5077760;28;20216;-72
2021/09/14 03:13:51;;;;;;;13.90;10.37;;;;;;;;;;5076726;28;20722;-72
2021/09/14 03:16:19;;;;;;;21.00;10.03;;;;;;;;;;5076543;28;20206;-72
2021/09/14 03:18:45;;;;;;;15.97;9.53;;;;;;;;;;5076216;28;20271;-72
2021/09/14 03:21:13;;;;;;;14.70;10.57;;;;;;;;;;5075215;28;20213;-72
2021/09/14 03:23:39;;;;;;;14.27;10.97;;;;;;;;;;5075244;28;20210;-72
2021/09/14 03:26:06;;;;;;;17.80;11.63;;;;;;;;;;5076413;28;20217;-72
2021/09/14 03:28:33;;;;;;;16.27;11.47;;;;;;;;;;5075546;28;20214;-72
2021/09/14 03:30:59;;;;;;;16.10;10.83;;;;;;;;;;5076281;28;20743;-72
2021/09/14 03:33:27;;;;;;;13.73;11.80;;;;;;;;;;5077299;28;20225;-72
2021/09/14 03:35:53;;;;;;;17.03;11.47;;;;;;;;;;5075603;28;20373;-72
2021/09/14 03:38:20;;;;;;;18.20;12.60;;;;;;;;;;5074417;28;20258;-72
2021/09/14 03:40:46;;;;;;;15.57;12.13;;;;;;;;;;5076014;28;20258;-72
2021/09/14 03:43:13;;;;;;;18.67;13.07;;;;;;;;;;5075561;28;20202;-72
2021/09/14 03:45:40;;;;;;;19.40;13.17;;;;;;;;;;5075697;28;20202;-72
2021/09/14 03:48:07;;;;;;;19.60;12.67;;;;;;;;;;5076045;28;20237;-72
2021/09/14 03:50:35;;;;;;;18.03;13.53;;;;;;;;;;5074057;28;20222;-72
2021/09/14 03:53:01;;;;;;;20.50;13.30;;;;;;;;;;5075492;28;20609;-71
2021/09/14 03:55:28;;;;;;;18.70;13.43;;;;;;;;;;5075035;28;20213;-71
2021/09/14 03:57:54;;;;;;;18.23;13.50;;;;;;;;;;5073354;28;20222;-72
2021/09/14 04:00:21;;;;;;;18.17;12.53;;;;;;;;;;5075050;28;20214;-72
2021/09/14 04:02:49;;;;;;;18.60;13.43;;;;;;;;;;5074617;28;20245;-72
2021/09/14 04:05:28;;;;;;;18.80;13.33;;;;;;;;;;5074133;28;20222;-72
2021/09/14 04:08:50;;;;;;;19.83;14.47;;;;;;;;;;5074195;28;20225;-72
2021/09/14 04:10:51;;;;;;;21.60;12.80;;;;;;;;;;5074593;28;20213;-72
2021/09/14 04:13:17;;;;;;;22.70;14.30;;;;;;;;;;5076317;28;20224;-72
2021/09/14 04:15:44;;;;;;;24.73;15.70;;;;;;;;;;5072803;28;20214;-72
2021/09/14 04:18:11;;;;;;;19.30;15.17;;;;;;;;;;5075518;28;20233;-72
2021/09/14 04:20:38;;;;;;;20.33;14.83;;;;;;;;;;5074895;28;20217;-72
2021/09/14 04:23:05;;;;;;;24.17;15.53;;;;;;;;;;5072482;28;20704;-72
2021/09/14 04:25:32;;;;;;;20.23;13.43;;;;;;;;;;5073151;28;20285;-72
2021/09/14 04:27:58;;;;;;;23.93;15.40;;;;;;;;;;5077291;28;20239;-72
2021/09/14 04:30:24;;;;;;;20.67;15.00;;;;;;;;;;5073597;28;20256;-72
2021/09/14 04:32:51;;;;;;;22.93;15.20;;;;;;;;;;5072767;28;20240;-72
2021/09/14 04:35:17;;;;;;;22.30;16.27;;;;;;;;;;5075770;28;20213;-72
2021/09/14 04:37:44;;;;;;;23.00;16.17;;;;;;;;;;5075103;28;20281;-72
2021/09/14 04:40:13;;;;;;;22.17;15.63;;;;;;;;;;5074594;28;20260;-72
2021/09/14 04:42:39;;;;;;;26.57;16.23;;;;;;;;;;5073559;28;20217;-72
2021/09/14 04:45:07;;;;;;;24.43;16.47;;;;;;;;;;5073971;28;20258;-71
2021/09/14 04:47:34;;;;;;;24.57;17.30;;;;;;;;;;5076208;28;20306;-71
2021/09/14 04:50:00;;;;;;;29.43;18.37;;;;;;;;;;5074681;28;20217;-72
2021/09/14 04:52:26;;;;;;;21.57;16.27;;;;;;;;;;5074944;28;20255;-72
2021/09/14 04:54:53;;;;;;;25.40;17.67;;;;;;;;;;5075014;28;20270;-72
2021/09/14 04:57:20;;;;;;;26.37;18.70;;;;;;;;;;5073929;28;20719;-71
2021/09/14 04:59:47;;;;;;;23.03;17.83;;;;;;;;;;5073277;28;20235;-71
2021/09/14 05:02:13;;;;;;;24.07;17.40;;;;;;;;;;5077148;28;20253;-71
2021/09/14 05:04:40;;;;;;;29.17;17.57;;;;;;;;;;5077304;28;20216;-72
2021/09/14 05:07:06;;;;;;;26.37;16.77;;;;;;;;;;5075911;28;20235;-72
2021/09/14 05:09:32;;;;;;;28.43;19.30;;;;;;;;;;5078322;28;20290;-72
2021/09/14 05:11:59;;;;;;;27.40;18.43;;;;;;;;;;5078807;28;20243;-72
2021/09/14 05:14:27;;;;;;;29.23;18.97;;;;;;;;;;5078008;28;20220;-72
2021/09/14 05:16:53;;;;;;;27.80;17.77;;;;;;;;;;5078129;28;20225;-71
2021/09/14 05:19:29;;;;;;;28.37;19.17;;;;;;;;;;5076935;28;21025;-71
2021/09/14 05:21:58;;;;;;;26.57;18.70;;;;;;;;;;5077629;28;20231;-72
2021/09/14 05:24:25;;;;;;;29.23;19.77;;;;;;;;;;5077488;28;20213;-72
2021/09/14 05:26:51;;;;;;;27.30;18.80;;;;;;;;;;5076792;28;20234;-72
2021/09/14 05:29:17;;;;;;;28.17;19.97;;;;;;;;;;5078008;28;20240;-72
2021/09/14 05:31:46;;;;;;;26.70;18.67;;;;;;;;;;5077895;28;20233;-72
2021/09/14 05:34:12;;;;;;;29.40;19.40;;;;;;;;;;5076071;28;20210;-72
2021/09/14 05:36:39;;;;;;;31.20;19.97;;;;;;;;;;5078888;28;20649;-72
2021/09/14 05:39:06;;;;;;;26.30;18.50;;;;;;;;;;5077253;28;20221;-72
2021/09/14 05:41:32;;;;;;;27.93;18.63;;;;;;;;;;5077696;28;20259;-72
2021/09/14 05:43:59;;;;;;;24.60;18.43;;;;;;;;;;5077643;28;20224;-72
2021/09/14 05:46:25;;;;;;;27.00;19.20;;;;;;;;;;5074483;28;20210;-72
2021/09/14 05:48:53;;;;;;;25.73;18.67;;;;;;;;;;5077950;28;20243;-72
2021/09/14 05:51:20;;;;;;;25.43;17.77;;;;;;;;;;5076805;28;20218;-72
2021/09/14 05:53:47;;;;;;;22.70;18.37;;;;;;;;;;5076764;28;20212;-72
2021/09/14 05:56:13;;;;;;;25.87;19.10;;;;;;;;;;5077400;28;20278;-72
2021/09/14 05:58:39;;;;;;;25.40;19.03;;;;;;;;;;5075355;28;20213;-74
2021/09/14 06:01:08;;;;;;;24.53;18.07;;;;;;;;;;5074138;28;20660;-72
2021/09/14 06:03:34;;;;;;;27.33;18.23;;;;;;;;;;5077598;28;20826;-71
2021/09/14 06:06:02;;;;;;;25.67;18.23;;;;;;;;;;5076035;28;20210;-72
2021/09/14 06:08:28;;;;;;;24.87;18.67;;;;;;;;;;5074638;28;20238;-72
2021/09/14 06:10:55;;;;;;;24.77;17.30;;;;;;;;;;5074238;28;20812;-72
2021/09/14 06:13:21;;;;;;;20.77;17.17;;;;;;;;;;5071794;28;20263;-72
2021/09/14 06:15:47;;;;;;;21.17;16.67;;;;;;;;;;5076120;28;20646;-72
2021/09/14 06:18:14;;;;;;;19.53;16.47;;;;;;;;;;5075605;28;20307;-72
2021/09/14 06:20:40;;;;;;;20.50;15.90;;;;;;;;;;5075960;28;20287;-72
2021/09/14 06:23:08;;;;;;;19.33;15.87;;;;;;;;;;5074806;28;20217;-72
2021/09/14 06:25:36;;;;;;;19.77;16.23;;;;;;;;;;5074691;28;20228;-72
2021/09/14 06:28:03;;;;;;;20.00;16.33;;;;;;;;;;5073528;28;20252;-72
2021/09/14 06:30:29;;;;;;;21.13;16.60;;;;;;;;;;5074903;28;20598;-72
2021/09/14 06:32:56;;;;;;;18.63;14.93;;;;;;;;;;5074653;28;20598;-72
2021/09/14 06:35:22;;;;;;;17.33;15.17;;;;;;;;;;5073100;28;20217;-72
2021/09/14 06:37:48;;;;;;;19.40;15.37;;;;;;;;;;5072892;28;20682;-72
2021/09/14 06:40:16;;;;;;;19.70;14.97;;;;;;;;;;5072647;28;20244;-72
2021/09/14 06:42:43;;;;;;;18.17;15.97;;;;;;;;;;5075702;28;20225;-72
2021/09/14 06:45:10;;;;;;;18.47;15.50;;;;;;;;;;5074898;28;20631;-72
2021/09/14 06:47:37;;;;;;;17.63;15.23;;;;;;;;;;5073840;28;20241;-72
2021/09/14 06:50:03;;;;;;;17.47;14.20;;;;;;;;;;5074811;28;20271;-72
2021/09/14 06:52:30;;;;;;;19.77;15.23;;;;;;;;;;5074059;28;20229;-72
2021/09/14 06:54:56;;;;;;;18.70;14.77;;;;;;;;;;5075694;28;20205;-73
2021/09/14 06:57:24;;;;;;;18.57;14.87;;;;;;;;;;5073077;28;20222;-72
2021/09/14 06:59:50;;;;;;;16.63;14.47;;;;;;;;;;5074472;28;20729;-72
2021/09/14 07:02:17;;;;;;;20.43;15.00;;;;;;;;;;5072734;28;20241;-71
2021/09/14 07:04:43;;;;;;;19.07;15.30;;;;;;;;;;5072150;28;20260;-72
2021/09/14 07:07:09;;;;;;;17.80;14.53;;;;;;;;;;5073836;28;20650;-72
2021/09/14 07:09:36;;;;;;;17.53;14.97;;;;;;;;;;5074314;28;20652;-72
2021/09/14 07:12:05;;;;;;;17.47;14.57;;;;;;;;;;5065520;28;20208;-71
2021/09/14 07:14:33;;;;;;;18.13;15.13;;;;;;;;;;5073239;28;20572;-72
2021/09/14 07:16:59;;;;;;;19.47;15.77;;;;;;;;;;5073401;28;20225;-72
2021/09/14 07:19:26;;;;;;;16.07;13.10;;;;;;;;;;5075399;28;20202;-72
2021/09/14 07:21:52;;;;;;;20.83;15.10;;;;;;;;;;5073737;28;20241;-72
2021/09/14 07:24:18;;;;;;;17.07;14.17;;;;;;;;;;5071432;28;20222;-72
2021/09/14 07:26:45;;;;;;;14.97;13.27;;;;;;;;;;5072183;28;20211;-72
2021/09/14 07:29:11;;;;;;;19.40;14.37;;;;;;;;;;5074075;28;20649;-72
2021/09/14 07:31:41;;;;;;;17.13;14.10;;;;;;;;;;5072413;28;20223;-72
2021/09/14 07:34:07;;;;;;;17.83;15.37;;;;;;;;;;5074186;28;20209;-72
2021/09/14 07:36:33;;;;;;;18.80;14.27;;;;;;;;;;5072589;28;20234;-72
2021/09/14 07:39:00;;;;;;;17.20;13.70;;;;;;;;;;5072590;28;20210;-72
2021/09/14 07:41:26;;;;;;;17.10;15.27;;;;;;;;;;5072301;28;20706;-72
2021/09/14 07:43:53;;;;;;;18.57;14.37;;;;;;;;;;5074484;28;20638;-71
2021/09/14 07:46:19;;;;;;;14.33;12.70;;;;;;;;;;5075018;28;20229;-72
2021/09/14 07:48:47;;;;;;;16.80;13.77;;;;;;;;;;5073695;28;20622;-72
2021/09/14 07:51:13;;;;;;;16.70;14.13;;;;;;;;;;5070423;28;20275;-72
2021/09/14 07:53:39;;;;;;;16.03;14.03;;;;;;;;;;5071523;28;20275;-72
2021/09/14 07:56:06;;;;;;;16.77;14.60;;;;;;;;;;5071261;28;20224;-72
2021/09/14 07:58:32;;;;;;;16.87;14.83;;;;;;;;;;5073000;28;21117;-72
2021/09/14 08:00:59;;;;;;;15.40;13.40;;;;;;;;;;5071803;28;20602;-72
2021/09/14 08:03:25;;;;;;;16.53;14.57;;;;;;;;;;5073211;28;20284;-72
2021/09/14 08:05:54;;;;;;;17.93;14.50;;;;;;;;;;5071601;28;20372;-72
2021/09/14 08:08:21;;;;;;;16.17;14.00;;;;;;;;;;5072292;28;20557;-72
2021/09/14 08:10:47;;;;;;;15.80;14.17;;;;;;;;;;5071858;28;20245;-72
2021/09/14 08:13:13;;;;;;;18.63;15.37;;;;;;;;;;5071960;28;20214;-72
2021/09/14 08:15:40;;;;;;;18.67;15.03;;;;;;;;;;5073388;28;20263;-72
2021/09/14 08:18:06;;;;;;;15.87;14.10;;;;;;;;;;5072804;28;20904;-72
2021/09/14 08:20:33;;;;;;;16.03;13.93;;;;;;;;;;5074322;28;20218;-72
2021/09/14 08:23:00;;;;;;;18.17;15.00;;;;;;;;;;5073229;28;20218;-72
2021/09/14 08:25:27;;;;;;;17.70;14.53;;;;;;;;;;5071907;28;21049;-73
2021/09/14 08:27:55;;;;;;;16.63;14.53;;;;;;;;;;5073920;28;20275;-72
2021/09/14 08:30:21;;;;;;;17.33;15.50;;;;;;;;;;5075123;28;21068;-72
2021/09/14 08:32:47;;;;;;;17.10;14.33;;;;;;;;;;5071328;28;20266;-72
2021/09/14 08:35:14;;;;;;;16.57;14.00;;;;;;;;;;5073179;28;20260;-72
2021/09/14 08:37:40;;;;;;;17.13;15.17;;;;;;;;;;5071331;28;20244;-72
2021/09/14 08:40:09;;;;;;;15.63;13.97;;;;;;;;;;5072965;28;20216;-72
2021/09/14 08:42:38;;;;;;;19.07;14.33;;;;;;;;;;5072615;28;20632;-72
2021/09/14 08:45:06;;;;;;;16.63;13.43;;;;;;;;;;5072512;28;20714;-73
2021/09/14 08:47:33;;;;;;;18.10;12.80;;;;;;;;;;5074470;28;20238;-73
2021/09/14 08:49:59;;;;;;;14.70;13.10;;;;;;;;;;5070268;28;20278;-72
2021/09/14 08:52:26;;;;;;;14.43;13.03;;;;;;;;;;5073106;28;20221;-72
2021/09/14 08:54:53;;;;;;;16.23;13.63;;;;;;;;;;5072524;28;20218;-72
2021/09/14 08:57:20;;;;;;;15.67;13.63;;;;;;;;;;5072771;28;20214;-72
2021/09/14 08:59:47;;;;;;;14.33;12.83;;;;;;;;;;5071957;28;20212;-72
2021/09/14 09:02:16;;;;;;;14.33;12.80;;;;;;;;;;5073924;28;20287;-72
2021/09/14 09:04:54;;;;;;;13.50;12.17;;;;;;;;;;5074147;28;20213;-72
2021/09/14 09:07:33;;;;;;;14.90;12.87;;;;;;;;;;5071249;28;20214;-72
2021/09/14 09:10:10;;;;;;;14.33;12.87;;;;;;;;;;5072801;28;20224;-72
2021/09/14 09:12:41;;;;;;;14.93;12.67;;;;;;;;;;5073377;28;20224;-72
2021/09/14 09:15:10;;;;;;;17.10;11.60;;;;;;;;;;5070788;28;20244;-72
2021/09/14 09:17:36;;;;;;;14.10;12.60;;;;;;;;;;5073067;28;20233;-72
2021/09/14 09:20:06;;;;;;;12.40;11.10;;;;;;;;;;5071772;28;20224;-72
2021/09/14 09:22:33;;;;;;;14.40;12.87;;;;;;;;;;5072871;28;20673;-72
2021/09/14 09:25:00;;;;;;;13.87;12.47;;;;;;;;;;5070632;28;20217;-72
2021/09/14 09:27:29;;;;;;;14.37;12.03;;;;;;;;;;5071569;28;20725;-72
2021/09/14 09:30:03;;;;;;;12.70;11.43;;;;;;;;;;5072087;28;20245;-72
2021/09/14 09:32:43;;;;;;;12.37;10.07;;;;;;;;;;5072454;28;20224;-72
2021/09/14 09:35:10;;;;;;;11.23;10.23;;;;;;;;;;5071793;28;20282;-71
2021/09/14 09:37:37;;;;;;;10.50;9.40;;;;;;;;;;5073067;28;20590;-72
2021/09/14 09:40:04;;;;;;;11.70;10.60;;;;;;;;;;5071375;28;20215;-71
2021/09/14 09:42:31;;;;;;;11.97;10.07;;;;;;;;;;5070489;28;20305;-71
2021/09/14 09:45:03;;;;;;;11.87;10.80;;;;;;;;;;5070541;28;21127;-72
2021/09/14 09:47:29;;;;;;;13.30;10.37;;;;;;;;;;5071787;28;20249;-72
2021/09/14 09:49:56;;;;;;;11.63;10.53;;;;;;;;;;5075063;28;20279;-71
2021/09/14 09:52:23;;;;;;;11.63;10.50;;;;;;;;;;5077056;28;20276;-72
2021/09/14 09:54:50;;;;;;;11.93;10.60;;;;;;;;;;5074056;28;20242;-72
2021/09/14 09:57:18;;;;;;;14.80;10.83;;;;;;;;;;5075167;28;20653;-72
2021/09/14 09:59:44;;;;;;;11.13;9.77;;;;;;;;;;5074982;28;20215;-72
2021/09/14 10:02:18;;;;;;;11.77;10.53;;;;;;;;;;5072460;28;20258;-72
2021/09/14 10:04:49;;;;;;;12.77;11.33;;;;;;;;;;5074330;28;20205;-72
2021/09/14 10:07:16;;;;;;;12.67;11.37;;;;;;;;;;5074781;28;20215;-72
2021/09/14 10:09:50;;;;;;;13.57;11.77;;;;;;;;;;5073677;28;20275;-72
2021/09/14 10:12:25;;;;;;;12.27;10.97;;;;;;;;;;5076436;28;20301;-72
2021/09/14 10:14:59;;;;;;;13.03;11.70;;;;;;;;;;5072913;28;20294;-72
2021/09/14 10:17:27;;;;;;;13.53;12.20;;;;;;;;;;5073848;28;20238;-72
2021/09/14 10:19:54;;;;;;;15.33;11.77;;;;;;;;;;5075600;28;20217;-71
2021/09/14 10:22:24;;;;;;;14.60;13.17;;;;;;;;;;5074061;28;20223;-71
2021/09/14 10:24:52;;;;;;;14.60;12.20;;;;;;;;;;5072965;28;20213;-72
2021/09/14 10:27:19;;;;;;;14.20;12.77;;;;;;;;;;5074366;28;20224;-72
2021/09/14 10:29:56;;;;;;;13.90;12.53;;;;;;;;;;5073867;28;20234;-72
2021/09/14 10:32:23;;;;;;;13.63;12.27;;;;;;;;;;5073547;28;20554;-71
2021/09/14 10:34:55;;;;;;;16.07;12.47;;;;;;;;;;5072214;28;20215;-71
2021/09/14 10:37:21;;;;;;;15.07;13.43;;;;;;;;;;5073378;28;20627;-71
2021/09/14 10:39:48;;;;;;;14.57;13.13;;;;;;;;;;5072270;28;20216;-71
2021/09/14 10:42:16;;;;;;;15.03;13.60;;;;;;;;;;5073555;28;20220;-71
2021/09/14 10:44:44;;;;;;;14.60;13.20;;;;;;;;;;5075261;28;20611;-72
2021/09/14 10:47:11;;;;;;;13.77;12.47;;;;;;;;;;5072443;28;20281;-71
2021/09/14 10:49:46;;;;;;;15.07;13.47;;;;;;;;;;5072118;28;20820;-71
2021/09/14 10:52:17;;;;;;;13.70;12.17;;;;;;;;;;5074675;28;20219;-71
2021/09/14 10:54:46;;;;;;;13.50;12.17;;;;;;;;;;5076054;28;20299;-71
2021/09/14 10:57:13;;;;;;;14.13;12.80;;;;;;;;;;5072645;28;20235;-72
2021/09/14 10:59:39;;;;;;;15.00;13.60;;;;;;;;;;5074188;28;20654;-72
2021/09/14 11:02:06;;;;;;;15.80;14.50;;;;;;;;;;5072593;28;20710;-72
2021/09/14 11:04:32;;;;;;;13.53;12.40;;;;;;;;;;5073869;28;20270;-71
2021/09/14 11:06:59;;;;;;;14.10;12.73;;;;;;;;;;5073981;28;20221;-72
2021/09/14 11:09:27;;;;;;;14.10;12.90;;;;;;;;;;5072783;28;20231;-72
2021/09/14 11:11:55;;;;;;;15.70;14.10;;;;;;;;;;5072717;28;20878;-71
2021/09/14 11:14:21;;;;;;;16.40;14.93;;;;;;;;;;5072295;28;20222;-71
2021/09/14 11:16:48;;;;;;;15.67;14.13;;;;;;;;;;5073993;28;20393;-71
2021/09/14 11:19:14;;;;;;;16.10;14.70;;;;;;;;;;5073008;28;20235;-72
2021/09/14 11:21:44;;;;;;;15.97;14.23;;;;;;;;;;5072598;28;20234;-71
2021/09/14 11:24:11;;;;;;;18.57;16.87;;;;;;;;;;5072423;28;20634;-71
2021/09/14 11:26:40;;;;;;;17.80;16.10;;;;;;;;;;5071657;28;20631;-72
2021/09/14 11:29:06;;;;;;;19.03;17.23;;;;;;;;;;5074097;28;20244;-71
2021/09/14 11:31:34;;;;;;;19.13;17.33;;;;;;;;;;5069926;28;20225;-71
2021/09/14 11:34:02;;;;;;;17.83;16.23;;;;;;;;;;5072971;28;20241;-72
2021/09/14 11:36:28;;;;;;;18.37;16.67;;;;;;;;;;5071915;28;20679;-71
2021/09/14 11:38:59;;;;;;;17.57;16.07;;;;;;;;;;5070747;28;20361;-71
2021/09/14 11:41:32;;;;;;;17.47;15.60;;;;;;;;;;5069244;28;20582;-72
2021/09/14 11:43:59;;;;;;;17.03;15.43;;;;;;;;;;5071454;28;20808;-71
2021/09/14 11:46:26;;;;;;;19.37;17.40;;;;;;;;;;5072994;28;20261;-72
2021/09/14 11:48:56;;;;;;;20.20;18.33;;;;;;;;;;5072146;28;20630;-71
2021/09/14 11:51:23;;;;;;;19.13;17.23;;;;;;;;;;5070327;28;20218;-71
2021/09/14 11:53:51;;;;;;;18.60;16.80;;;;;;;;;;5073038;28;20218;-71
2021/09/14 11:56:20;;;;;;;19.37;16.87;;;;;;;;;;5073752;28;20209;-71
2021/09/14 11:58:48;;;;;;;19.03;17.33;;;;;;;;;;5072404;28;20269;-71
2021/09/14 12:01:18;;;;;;;19.47;17.67;;;;;;;;;;5069333;28;20214;-71
2021/09/14 12:03:45;;;;;;;18.20;16.60;;;;;;;;;;5071575;28;20653;-71
2021/09/14 12:06:13;;;;;;;19.93;18.23;;;;;;;;;;5070202;28;21078;-71
2021/09/14 12:08:42;;;;;;;19.70;18.10;;;;;;;;;;5072434;28;20607;-72
2021/09/14 12:11:09;;;;;;;19.30;17.60;;;;;;;;;;5072705;28;20276;-71
2021/09/14 12:13:38;;;;;;;20.03;18.23;;;;;;;;;;5071380;28;20214;-71
2021/09/14 12:16:08;;;;;;;18.83;17.23;;;;;;;;;;5071361;28;20216;-72
2021/09/14 12:18:37;;;;;;;19.93;18.17;;;;;;;;;;5072827;28;20308;-71
2021/09/14 12:21:03;;;;;;;22.13;19.43;;;;;;;;;;5074204;28;20305;-71
2021/09/14 12:23:31;;;;;;;19.37;17.43;;;;;;;;;;5072229;28;20271;-70
2021/09/14 12:25:57;;;;;;;20.63;18.67;;;;;;;;;;5069073;28;20279;-71
2021/09/14 12:28:23;;;;;;;18.33;16.83;;;;;;;;;;5072601;28;20214;-71
2021/09/14 12:30:50;;;;;;;20.00;18.08;;;;;;;;;;5070732;28;20461;-72
2021/09/14 12:33:16;;;;;;;21.10;19.30;;;;;;;;;;5070883;28;20277;-71
2021/09/14 12:35:44;;;;;;;19.13;17.33;;;;;;;;;;5073988;28;21112;-71
2021/09/14 12:38:11;;;;;;;18.03;16.43;;;;;;;;;;5072352;28;20297;-71
2021/09/14 12:40:38;;;;;;;19.30;17.43;;;;;;;;;;5070269;28;20211;-72
2021/09/14 12:43:05;;;;;;;18.13;16.33;;;;;;;;;;5073039;28;20265;-71
2021/09/14 12:45:31;;;;;;;19.57;17.83;;;;;;;;;;5070526;28;20219;-71
2021/09/14 12:47:58;;;;;;;20.93;18.87;;;;;;;;;;5073444;28;20232;-72
2021/09/14 12:50:24;;;;;;;19.43;17.63;;;;;;;;;;5069551;28;20241;-72
2021/09/14 12:52:52;;;;;;;18.23;16.57;;;;;;;;;;5073355;28;20280;-72
2021/09/14 12:55:18;;;;;;;16.90;15.20;;;;;;;;;;5072579;28;20255;-72
2021/09/14 12:57:45;;;;;;;17.20;15.53;;;;;;;;;;5071457;28;20219;-72
2021/09/14 13:00:13;;;;;;;17.53;16.03;;;;;;;;;;5069835;28;20201;-73
2021/09/14 13:02:39;;;;;;;20.27;14.43;;;;;;;;;;5071331;28;20926;-73
2021/09/14 13:05:06;;;;;;;17.73;16.00;;;;;;;;;;5072827;28;20667;-73
2021/09/14 13:07:33;;;;;;;29.87;18.73;;;;;;;;;;5071520;28;20213;-73
2021/09/14 13:10:02;;;;;;;16.77;15.00;;;;;;;;;;5064600;28;20237;-73
2021/09/14 13:12:32;;;;;;;16.50;15.10;;;;;;;;;;5055841;28;20216;-72
2021/09/14 13:17:43;;;;;;;18.43;16.70;;;;;;;;;;5068723;28;20347;-72
2021/09/14 13:20:11;;;;;;;17.10;15.53;;;;;;;;;;5060457;28;20224;-73
2021/09/14 13:22:38;;;;;;;15.87;14.47;;;;;;;;;;5070687;28;20231;-73
2021/09/14 13:25:07;;;;;;;16.37;15.10;;;;;;;;;;5072133;28;20289;-73
2021/09/14 13:27:33;;;;;;;16.63;15.03;;;;;;;;;;5064314;28;20216;-72
2021/09/14 13:29:59;;;;;;;17.00;15.40;;;;;;;;;;5073130;28;20242;-72
2021/09/14 13:32:26;;;;;;;18.33;16.53;;;;;;;;;;5070328;28;21016;-73
2021/09/14 13:34:52;;;;;;;18.97;13.97;;;;;;;;;;5072368;28;20583;-73
2021/09/14 13:37:19;;;;;;;17.55;15.25;;;;;;;;;;5073711;28;20449;-70
2021/09/14 13:39:45;;;;;;;16.50;14.80;;;;;;;;;;5072929;28;20677;-71
2021/09/14 13:42:18;;;;;;;16.73;15.20;;;;;;;;;;5060781;28;20223;-70
2021/09/14 13:47:29;;;;;;;15.50;13.90;;;;;;;;;;5057853;28;20304;-71
2021/09/14 13:49:55;;;;;;;16.73;14.60;;;;;;;;;;5057774;28;20245;-70
2021/09/14 13:52:22;;;;;;;20.70;15.50;;;;;;;;;;5055043;28;20225;-71
2021/09/14 13:54:48;;;;;;;17.27;15.47;;;;;;;;;;5058871;28;20212;-71
2021/09/14 13:57:16;;;;;;;17.07;15.47;;;;;;;;;;5058937;28;20295;-71
2021/09/14 13:59:42;;;;;;;19.63;15.43;;;;;;;;;;5057669;28;20275;-71
2021/09/14 14:02:09;;;;;;;18.07;16.10;;;;;;;;;;5056363;28;20509;-71
2021/09/14 14:04:35;;;;;;;17.87;16.23;;;;;;;;;;5057483;28;20207;-71
2021/09/14 14:07:02;;;;;;;19.23;17.40;;;;;;;;;;5055016;28;20321;-71
2021/09/14 14:09:28;;;;;;;18.80;17.00;;;;;;;;;;5058256;28;20619;-71
2021/09/14 14:11:55;;;;;;;17.87;15.93;;;;;;;;;;5067157;28;20254;-71
2021/09/14 14:14:22;;;;;;;18.83;16.87;;;;;;;;;;5073361;28;20211;-71
2021/09/14 14:16:49;;;;;;;18.00;16.30;;;;;;;;;;5070014;28;20303;-71
2021/09/14 14:19:15;;;;;;;20.13;18.43;;;;;;;;;;5066648;28;20250;-71
2021/09/14 14:21:41;;;;;;;19.13;17.40;;;;;;;;;;5074333;28;20732;-70
2021/09/14 14:24:08;;;;;;;19.00;17.30;;;;;;;;;;5073285;28;20674;-71
2021/09/14 14:26:34;;;;;;;19.50;17.60;;;;;;;;;;5074297;28;20262;-70
2021/09/14 14:29:01;;;;;;;19.93;18.13;;;;;;;;;;5075349;28;20217;-71
2021/09/14 14:31:28;;;;;;;18.73;17.03;;;;;;;;;;5075026;28;20235;-71
2021/09/14 14:33:55;;;;;;;17.77;16.07;;;;;;;;;;5074053;28;20221;-71
2021/09/14 14:36:21;;;;;;;16.87;15.17;;;;;;;;;;5071028;28;20644;-71
2021/09/14 14:38:48;;;;;;;16.20;14.70;;;;;;;;;;5074663;28;20209;-71
2021/09/14 14:41:15;;;;;;;17.13;15.43;;;;;;;;;;5074378;28;20298;-71
2021/09/14 14:43:41;;;;;;;18.23;16.37;;;;;;;;;;5073536;28;20285;-71
2021/09/14 14:46:09;;;;;;;16.90;15.40;;;;;;;;;;5074260;28;20247;-73
2021/09/14 14:48:37;;;;;;;17.63;15.93;;;;;;;;;;5075460;28;20302;-73
2021/09/14 14:51:03;;;;;;;19.43;17.60;;;;;;;;;;5075337;28;20240;-73
2021/09/14 14:53:30;;;;;;;18.93;17.03;;;;;;;;;;5071941;28;20271;-73
2021/09/14 14:55:56;;;;;;;18.77;17.07;;;;;;;;;;5074670;28;20204;-72
2021/09/14 14:58:23;;;;;;;20.40;17.80;;;;;;;;;;5072350;28;20215;-72
2021/09/14 15:00:50;;;;;;;19.23;17.53;;;;;;;;;;5072975;28;20211;-73
2021/09/14 15:03:17;;;;;;;20.33;18.20;;;;;;;;;;5073073;28;20261;-72
2021/09/14 15:05:46;;;;;;;19.40;17.80;;;;;;;;;;5073659;28;20242;-72
2021/09/14 15:08:12;;;;;;;18.47;16.77;;;;;;;;;;5074247;28;20229;-72
2021/09/14 15:10:39;;;;;;;17.20;15.60;;;;;;;;;;5074745;28;20961;-71
2021/09/14 15:13:05;;;;;;;17.13;15.63;;;;;;;;;;5074409;28;20216;-71
2021/09/14 15:15:31;;;;;;;18.07;16.37;;;;;;;;;;5073205;28;20256;-71